Terminal Aerodrome Forecast
Issued by NWS

Home | Current Version | Previous Version | Text Only | Print | Product List | Glossary On
Versions: 1 2 3 4 5 6 7 8 9 10 11 12 13 14 15 16 17
000
FTUS45 KGJT 250524
TAFMTJ
TAF
KMTJ 250524Z 2506/2606 16007KT P6SM SCT250
     FM251200 17008KT P6SM FEW250
     FM251800 28010G20KT P6SM SCT250
     FM260200 22005KT P6SM FEW250
     FM260400 15007KT P6SM FEW250=

USA.gov is the U.S. government's official web portal to all federal, state and local government web resources and services.